Terminal Aerodrome Forecast
Issued by NWS

Home | Current Version | Previous Version | Graphics & Text | Print | Product List | Glossary On
Versions: 1 2 3 4 5 6 7 8 9 10 11 12 13 14 15 16 17 18 19 20 21 22 23 24 25 26 27
447
FTUS43 KABR 191140
TAFATY
TAF
KATY 191140Z 1912/2012 14011KT P6SM SCT150
     FM191700 15011KT P6SM BKN120
     FM192100 15010KT P6SM VCTS BKN070CB
     FM200200 10009KT P6SM BKN080
     FM200400 08007KT P6SM BKN030=

USA.gov is the U.S. government's official web portal to all federal, state and local government web resources and services.